Time;durP1;ratioP1;P1;durP2;ratioP2;P2;SDS_P1;SDS_P2;PMS_P1;PMS_P2;Temp;Humidity;BMP_temperature;BMP_pressure;BME280_temperature;BME280_humidity;BME280_pressure;Samples;Min_cycle;Max_cycle;Signal;HPM_P1;HPM_P2
2022/08/30 00:02:20;;;;;;;;;;;;;;;;;;5085766;28;19920;-59
2022/08/30 00:04:45;;;;;;;;;;;;;;;;;;5075418;28;20289;-59
2022/08/30 00:07:10;;;;;;;;;;;;;;;;;;5073997;28;19973;-59
2022/08/30 00:09:35;;;;;;;;;;;;;;;;;;5077482;28;19942;-58
2022/08/30 00:12:00;;;;;;;;;;;;;;;;;;5073215;28;19916;-57
2022/08/30 00:14:26;;;;;;;;;;;;;;;;;;5076632;28;19940;-57
2022/08/30 00:16:51;;;;;;;;;;;;;;;;;;5057208;28;20337;-58
2022/08/30 00:19:16;;;;;;;;;;;;;;;;;;5078153;28;20596;-58
2022/08/30 00:21:41;;;;;;;;;;;;;;;;;;5071329;28;19947;-58
2022/08/30 00:24:06;;;;;;;;;;;;;;;;;;5073261;28;20369;-57
2022/08/30 00:26:32;;;;;;;;;;;;;;;;;;5085093;28;19912;-58
2022/08/30 00:28:57;;;;;;;;;;;;;;;;;;5081346;28;19988;-58
2022/08/30 00:31:22;;;;;;;;;;;;;;;;;;5087663;28;20387;-58
2022/08/30 00:33:47;;;;;;;;;;;;;;;;;;5078507;28;19917;-57
2022/08/30 00:36:13;;;;;;;;;;;;;;;;;;5062894;28;20560;-57
2022/08/30 00:38:38;;;;;;;;;;;;;;;;;;5083093;28;20399;-59
2022/08/30 00:41:03;;;;;;;;;;;;;;;;;;5082487;28;20001;-58
2022/08/30 00:43:28;;;;;;;;;;;;;;;;;;5084351;28;19957;-59
2022/08/30 00:45:53;;;;;;;;;;;;;;;;;;5062814;28;19912;-58
2022/08/30 00:48:18;;;;;;;;;;;;;;;;;;5087284;28;19912;-59
2022/08/30 00:50:44;;;;;;;;;;;;;;;;;;5081459;28;19912;-56
2022/08/30 00:53:09;;;;;;;;;;;;;;;;;;5088012;28;19922;-57
2022/08/30 00:55:34;;;;;;;;;;;;;;;;;;5083994;28;19926;-58
2022/08/30 00:57:59;;;;;;;;;;;;;;;;;;5090069;28;20356;-57
2022/08/30 01:00:25;;;;;;;;;;;;;;;;;;5075480;28;20407;-58
2022/08/30 01:02:50;;;;;;;;;;;;;;;;;;5079836;28;19916;-58
2022/08/30 01:05:15;;;;;;;;;;;;;;;;;;5062484;28;19919;-59
2022/08/30 01:07:40;;;;;;;;;;;;;;;;;;5085001;28;20288;-58
2022/08/30 01:10:05;;;;;;;;;;;;;;;;;;5079725;28;19912;-57
2022/08/30 01:12:30;;;;;;;;;;;;;;;;;;5081834;28;20003;-57
2022/08/30 01:14:55;;;;;;;;;;;;;;;;;;5077582;28;20403;-58
2022/08/30 01:17:20;;;;;;;;;;;;;;;;;;5083727;28;19962;-58
2022/08/30 01:19:46;;;;;;;;;;;;;;;;;;5084853;28;20003;-59
2022/08/30 01:22:11;;;;;;;;;;;;;;;;;;5087164;28;19918;-58
2022/08/30 01:24:36;;;;;;;;;;;;;;;;;;5087867;28;19912;-57
2022/08/30 01:27:01;;;;;;;;;;;;;;;;;;5081626;28;19912;-58
2022/08/30 01:29:26;;;;;;;;;;;;;;;;;;5090892;28;19919;-58
2022/08/30 01:31:51;;;;;;;;;;;;;;;;;;5079406;28;19916;-57
2022/08/30 01:34:17;;;;;;;;;;;;;;;;;;5064047;28;20011;-58
2022/08/30 01:36:42;;;;;;;;;;;;;;;;;;5083646;28;20342;-58
2022/08/30 01:39:08;;;;;;;;;;;;;;;;;;5060405;28;20349;-58
2022/08/30 01:41:33;;;;;;;;;;;;;;;;;;5082527;28;19912;-58
2022/08/30 01:43:59;;;;;;;;;;;;;;;;;;5081441;28;19927;-58
2022/08/30 01:46:24;;;;;;;;;;;;;;;;;;5073180;28;19912;-58
2022/08/30 01:48:49;;;;;;;;;;;;;;;;;;5065439;28;19920;-59
2022/08/30 01:51:14;;;;;;;;;;;;;;;;;;5089144;28;20539;-58
2022/08/30 01:53:39;;;;;;;;;;;;;;;;;;5080246;28;19974;-58
2022/08/30 01:56:04;;;;;;;;;;;;;;;;;;5089589;28;19912;-57
2022/08/30 01:58:29;;;;;;;;;;;;;;;;;;5071997;28;20364;-58
2022/08/30 02:00:55;;;;;;;;;;;;;;;;;;5082723;28;20390;-57
2022/08/30 02:03:20;;;;;;;;;;;;;;;;;;5084556;28;20007;-58
2022/08/30 02:05:45;;;;;;;;;;;;;;;;;;5055598;28;19917;-58
2022/08/30 02:08:10;;;;;;;;;;;;;;;;;;5080401;28;19913;-58
2022/08/30 02:10:35;;;;;;;;;;;;;;;;;;5077072;28;20017;-58
2022/08/30 02:13:00;;;;;;;;;;;;;;;;;;5073479;28;19986;-58
2022/08/30 02:15:26;;;;;;;;;;;;;;;;;;5082115;28;20287;-57
2022/08/30 02:17:51;;;;;;;;;;;;;;;;;;5084088;28;19920;-58
2022/08/30 02:20:16;;;;;;;;;;;;;;;;;;5086315;28;20380;-58
2022/08/30 02:22:41;;;;;;;;;;;;;;;;;;5066384;28;20393;-58
2022/08/30 02:25:06;;;;;;;;;;;;;;;;;;5067117;28;20065;-58
2022/08/30 02:27:31;;;;;;;;;;;;;;;;;;5073063;28;19916;-58
2022/08/30 02:29:56;;;;;;;;;;;;;;;;;;5076939;28;19913;-57
2022/08/30 02:32:22;;;;;;;;;;;;;;;;;;5073023;28;20007;-58
2022/08/30 02:34:47;;;;;;;;;;;;;;;;;;5074976;28;19913;-58
2022/08/30 02:37:12;;;;;;;;;;;;;;;;;;5080008;28;19926;-58
2022/08/30 02:39:37;;;;;;;;;;;;;;;;;;5090476;28;19942;-58
2022/08/30 02:42:03;;;;;;;;;;;;;;;;;;5082661;28;19926;-58
2022/08/30 02:44:28;;;;;;;;;;;;;;;;;;5079888;28;19915;-58
2022/08/30 02:46:53;;;;;;;;;;;;;;;;;;5080501;28;19939;-58
2022/08/30 02:49:18;;;;;;;;;;;;;;;;;;5080977;28;19916;-58
2022/08/30 02:51:43;;;;;;;;;;;;;;;;;;5080228;28;19915;-58
2022/08/30 02:54:08;;;;;;;;;;;;;;;;;;5077738;28;20330;-58
2022/08/30 02:56:33;;;;;;;;;;;;;;;;;;5078771;28;19908;-57
2022/08/30 02:58:58;;;;;;;;;;;;;;;;;;5077552;28;19919;-58
2022/08/30 03:01:24;;;;;;;;;;;;;;;;;;5076115;28;19912;-58
2022/08/30 03:03:49;;;;;;;;;;;;;;;;;;5076781;28;20373;-57
2022/08/30 03:06:14;;;;;;;;;;;;;;;;;;5076518;28;19952;-58
2022/08/30 03:08:40;;;;;;;;;;;;;;;;;;5078046;28;19962;-56
2022/08/30 03:11:05;;;;;;;;;;;;;;;;;;5071827;28;19966;-57
2022/08/30 03:13:30;;;;;;;;;;;;;;;;;;5070275;28;20352;-57
2022/08/30 03:15:55;;;;;;;;;;;;;;;;;;5074852;28;19920;-58
2022/08/30 03:18:20;;;;;;;;;;;;;;;;;;5083718;28;19916;-59
2022/08/30 03:20:45;;;;;;;;;;;;;;;;;;5079493;28;19920;-58
2022/08/30 03:23:10;;;;;;;;;;;;;;;;;;5058416;28;19916;-58
2022/08/30 03:25:36;;;;;;;;;;;;;;;;;;5063727;28;20363;-57
2022/08/30 03:28:01;;;;;;;;;;;;;;;;;;5081472;28;20364;-58
2022/08/30 03:30:26;;;;;;;;;;;;;;;;;;5084652;28;19918;-58
2022/08/30 03:32:51;;;;;;;;;;;;;;;;;;5077394;28;20628;-56
2022/08/30 03:35:16;;;;;;;;;;;;;;;;;;5080312;28;19912;-58
2022/08/30 03:37:42;;;;;;;;;;;;;;;;;;5082252;28;20402;-58
2022/08/30 03:40:07;;;;;;;;;;;;;;;;;;5079180;28;19921;-58
2022/08/30 03:42:33;;;;;;;;;;;;;;;;;;5081254;28;19951;-58
2022/08/30 03:44:58;;;;;;;;;;;;;;;;;;5072200;28;19966;-58
2022/08/30 03:47:23;;;;;;;;;;;;;;;;;;5067658;28;19927;-58
2022/08/30 03:49:48;;;;;;;;;;;;;;;;;;5084009;28;19912;-57
2022/08/30 03:52:13;;;;;;;;;;;;;;;;;;5080969;28;19913;-58
2022/08/30 03:54:39;;;;;;;;;;;;;;;;;;5066375;28;19923;-57
2022/08/30 03:57:04;;;;;;;;;;;;;;;;;;5077333;28;20010;-57
2022/08/30 03:59:29;;;;;;;;;;;;;;;;;;5077178;28;20023;-57
2022/08/30 04:01:54;;;;;;;;;;;;;;;;;;5086186;28;19912;-58
2022/08/30 04:04:19;;;;;;;;;;;;;;;;;;5075361;28;19912;-58
2022/08/30 04:06:44;;;;;;;;;;;;;;;;;;5084801;28;19965;-58
2022/08/30 04:09:10;;;;;;;;;;;;;;;;;;5085723;28;20499;-58
2022/08/30 04:11:35;;;;;;;;;;;;;;;;;;5081588;28;20368;-58
2022/08/30 04:14:00;;;;;;;;;;;;;;;;;;5077232;28;20399;-59
2022/08/30 04:16:25;;;;;;;;;;;;;;;;;;5077304;28;20400;-59
2022/08/30 04:18:50;;;;;;;;;;;;;;;;;;5083484;28;20289;-58
2022/08/30 04:21:16;;;;;;;;;;;;;;;;;;5078860;28;19916;-59
2022/08/30 04:23:41;;;;;;;;;;;;;;;;;;5080459;28;19923;-59
2022/08/30 04:26:06;;;;;;;;;;;;;;;;;;5058591;28;20272;-59
2022/08/30 04:28:32;;;;;;;;;;;;;;;;;;5084610;28;20442;-58
2022/08/30 04:30:57;;;;;;;;;;;;;;;;;;5085880;28;19913;-56
2022/08/30 04:33:23;;;;;;;;;;;;;;;;;;5083095;28;20372;-66
2022/08/30 04:35:48;;;;;;;;;;;;;;;;;;5070137;28;19917;-66
2022/08/30 04:38:13;;;;;;;;;;;;;;;;;;5059333;28;19916;-65
2022/08/30 04:40:38;;;;;;;;;;;;;;;;;;5058986;28;19913;-66
2022/08/30 04:43:04;;;;;;;;;;;;;;;;;;5083972;28;19912;-66
2022/08/30 04:45:29;;;;;;;;;;;;;;;;;;5069148;28;19958;-65
2022/08/30 04:47:54;;;;;;;;;;;;;;;;;;5074847;28;19938;-65
2022/08/30 04:50:19;;;;;;;;;;;;;;;;;;5074471;28;19951;-65
2022/08/30 04:52:44;;;;;;;;;;;;;;;;;;5062388;28;19912;-65
2022/08/30 04:55:09;;;;;;;;;;;;;;;;;;5082634;28;19923;-65
2022/08/30 04:57:35;;;;;;;;;;;;;;;;;;5057431;28;19916;-65
2022/08/30 05:00:00;;;;;;;;;;;;;;;;;;5059800;28;19916;-67
2022/08/30 05:02:25;;;;;;;;;;;;;;;;;;5083284;28;19921;-65
2022/08/30 05:07:34;;;;;;;;;;;;;;;;;;5076840;28;19919;-65
2022/08/30 05:09:59;;;;;;;;;;;;;;;;;;5067834;28;19917;-65
2022/08/30 05:12:24;;;;;;;;;;;;;;;;;;5061605;28;19930;-65
2022/08/30 05:14:49;;;;;;;;;;;;;;;;;;5083723;28;19915;-65
2022/08/30 05:17:14;;;;;;;;;;;;;;;;;;5084940;28;19920;-64
2022/08/30 05:19:40;;;;;;;;;;;;;;;;;;5085223;28;19913;-64
2022/08/30 05:22:05;;;;;;;;;;;;;;;;;;5094067;28;20427;-64
2022/08/30 05:24:30;;;;;;;;;;;;;;;;;;5085789;28;19912;-65
2022/08/30 05:26:56;;;;;;;;;;;;;;;;;;5071208;28;19918;-65
2022/08/30 05:29:21;;;;;;;;;;;;;;;;;;5080628;28;20333;-65
2022/08/30 05:31:46;;;;;;;;;;;;;;;;;;5099559;28;19957;-64
2022/08/30 05:34:11;;;;;;;;;;;;;;;;;;5108507;28;19939;-64
2022/08/30 05:36:36;;;;;;;;;;;;;;;;;;5090125;28;19912;-64
2022/08/30 05:39:01;;;;;;;;;;;;;;;;;;5068681;28;19927;-65
2022/08/30 05:41:27;;;;;;;;;;;;;;;;;;5074153;28;19958;-64
2022/08/30 05:43:52;;;;;;;;;;;;;;;;;;5074030;28;20002;-65
2022/08/30 05:46:18;;;;;;;;;;;;;;;;;;5091940;28;19970;-65
2022/08/30 05:48:43;;;;;;;;;;;;;;;;;;5072083;28;19912;-65
2022/08/30 05:51:08;;;;;;;;;;;;;;;;;;5076127;28;19952;-65
2022/08/30 05:53:33;;;;;;;;;;;;;;;;;;5076172;28;19917;-64
2022/08/30 05:55:59;;;;;;;;;;;;;;;;;;5058038;28;19912;-63
2022/08/30 05:58:24;;;;;;;;;;;;;;;;;;5090335;28;19916;-66
2022/08/30 06:00:49;;;;;;;;;;;;;;;;;;5069161;28;19912;-64
2022/08/30 06:03:14;;;;;;;;;;;;;;;;;;5093890;28;19931;-64
2022/08/30 06:05:39;;;;;;;;;;;;;;;;;;5090880;28;19920;-64
2022/08/30 06:08:04;;;;;;;;;;;;;;;;;;5074479;28;20280;-64
2022/08/30 06:10:29;;;;;;;;;;;;;;;;;;5075255;28;19912;-64
2022/08/30 06:12:55;;;;;;;;;;;;;;;;;;5073725;28;19936;-61
2022/08/30 06:15:20;;;;;;;;;;;;;;;;;;5089256;28;19973;-62
2022/08/30 06:17:45;;;;;;;;;;;;;;;;;;5069964;28;19931;-66
2022/08/30 06:20:10;;;;;;;;;;;;;;;;;;5056084;28;19954;-64
2022/08/30 06:22:35;;;;;;;;;;;;;;;;;;5059717;28;19913;-64
2022/08/30 06:25:00;;;;;;;;;;;;;;;;;;5099236;28;19919;-64
2022/08/30 06:27:26;;;;;;;;;;;;;;;;;;5059514;28;19947;-64
2022/08/30 06:29:51;;;;;;;;;;;;;;;;;;5093407;28;19908;-64
2022/08/30 06:32:16;;;;;;;;;;;;;;;;;;5093817;28;19980;-64
2022/08/30 06:34:41;;;;;;;;;;;;;;;;;;5110714;28;19908;-64
2022/08/30 06:37:06;;;;;;;;;;;;;;;;;;5112261;28;19947;-64
2022/08/30 06:39:31;;;;;;;;;;;;;;;;;;5074722;28;20118;-65
2022/08/30 06:41:56;;;;;;;;;;;;;;;;;;5054643;28;19912;-64
2022/08/30 06:44:21;;;;;;;;;;;;;;;;;;5072044;28;19955;-64
2022/08/30 06:46:47;;;;;;;;;;;;;;;;;;5108214;28;19911;-64
2022/08/30 06:49:12;;;;;;;;;;;;;;;;;;5073756;28;20371;-64
2022/08/30 06:51:37;;;;;;;;;;;;;;;;;;5074505;28;19912;-64
2022/08/30 06:54:02;;;;;;;;;;;;;;;;;;5100687;28;20011;-65
2022/08/30 06:56:27;;;;;;;;;;;;;;;;;;5083696;28;19912;-64
2022/08/30 06:58:52;;;;;;;;;;;;;;;;;;5072216;28;19991;-64
2022/08/30 07:01:18;;;;;;;;;;;;;;;;;;5083295;28;19916;-64
2022/08/30 07:03:43;;;;;;;;;;;;;;;;;;5077775;28;19912;-65
2022/08/30 07:06:08;;;;;;;;;;;;;;;;;;5055887;28;20261;-64
2022/08/30 07:08:33;;;;;;;;;;;;;;;;;;5075339;28;19912;-65
2022/08/30 07:10:58;;;;;;;;;;;;;;;;;;5054732;28;19948;-64
2022/08/30 07:13:23;;;;;;;;;;;;;;;;;;5071450;28;19913;-65
2022/08/30 07:15:49;;;;;;;;;;;;;;;;;;5094878;28;19920;-65
2022/08/30 07:20:59;;;;;;;;;;;;;;;;;;5091944;28;20464;-65
2022/08/30 07:23:24;;;;;;;;;;;;;;;;;;5090933;28;19908;-65
2022/08/30 07:25:50;;;;;;;;;;;;;;;;;;5081716;28;19919;-65
2022/08/30 07:28:15;;;;;;;;;;;;;;;;;;5074984;28;19908;-65
2022/08/30 07:30:40;;;;;;;;;;;;;;;;;;5092351;28;19962;-65
2022/08/30 07:33:05;;;;;;;;;;;;;;;;;;5092277;28;19908;-62
2022/08/30 07:35:30;;;;;;;;;;;;;;;;;;5086920;28;19936;-65
2022/08/30 07:37:55;;;;;;;;;;;;;;;;;;5071762;28;19916;-65
2022/08/30 07:40:20;;;;;;;;;;;;;;;;;;5072726;28;19947;-65
2022/08/30 07:42:45;;;;;;;;;;;;;;;;;;5054597;28;19909;-65
2022/08/30 07:45:11;;;;;;;;;;;;;;;;;;5087770;28;20387;-65
2022/08/30 07:47:36;;;;;;;;;;;;;;;;;;5091279;28;19915;-65
2022/08/30 07:50:01;;;;;;;;;;;;;;;;;;5080125;28;20432;-65
2022/08/30 07:52:26;;;;;;;;;;;;;;;;;;5088491;28;20391;-65
2022/08/30 07:54:52;;;;;;;;;;;;;;;;;;5104950;28;20192;-65
2022/08/30 07:57:17;;;;;;;;;;;;;;;;;;5072358;28;19912;-65
2022/08/30 07:59:42;;;;;;;;;;;;;;;;;;5073668;28;19964;-65
2022/08/30 08:02:07;;;;;;;;;;;;;;;;;;5085746;28;20320;-65
2022/08/30 08:04:33;;;;;;;;;;;;;;;;;;5075244;28;20420;-64
2022/08/30 08:06:58;;;;;;;;;;;;;;;;;;5057801;28;19967;-65
2022/08/30 08:09:23;;;;;;;;;;;;;;;;;;5075350;28;19908;-64
2022/08/30 08:11:48;;;;;;;;;;;;;;;;;;5093937;28;20010;-65
2022/08/30 08:14:13;;;;;;;;;;;;;;;;;;5089804;28;19920;-65
2022/08/30 08:16:38;;;;;;;;;;;;;;;;;;5106379;28;19958;-65
2022/08/30 08:19:07;;;;;;;;;;;;;;;;;;5097694;28;20260;-65
2022/08/30 08:21:32;;;;;;;;;;;;;;;;;;5087119;28;20016;-64
2022/08/30 08:23:57;;;;;;;;;;;;;;;;;;5100252;28;19998;-65
2022/08/30 08:26:23;;;;;;;;;;;;;;;;;;5082046;28;19919;-64
2022/08/30 08:28:48;;;;;;;;;;;;;;;;;;5059399;28;20365;-65
2022/08/30 08:31:13;;;;;;;;;;;;;;;;;;5091824;28;20414;-63
2022/08/30 08:33:38;;;;;;;;;;;;;;;;;;5079156;28;19919;-65
2022/08/30 08:36:04;;;;;;;;;;;;;;;;;;5057121;28;19916;-64
2022/08/30 08:38:29;;;;;;;;;;;;;;;;;;5085447;28;19916;-64
2022/08/30 08:40:54;;;;;;;;;;;;;;;;;;5095701;28;20421;-64
2022/08/30 08:43:19;;;;;;;;;;;;;;;;;;5072248;28;19919;-65
2022/08/30 08:45:46;;;;;;;;;;;;;;;;;;5100952;28;19951;-65
2022/08/30 08:48:11;;;;;;;;;;;;;;;;;;5097199;28;20292;-65
2022/08/30 08:53:33;;;;;;;;;;;;;;;;;;5095053;28;19908;-65
2022/08/30 08:53:33;;;;;;;;;;;;;;;;;;5081661;28;20388;-64
2022/08/30 08:55:59;;;;;;;;;;;;;;;;;;5083082;28;20270;-64
2022/08/30 08:58:24;;;;;;;;;;;;;;;;;;5091882;28;19931;-64
2022/08/30 09:00:50;;;;;;;;;;;;;;;;;;5068077;28;19944;-64
2022/08/30 09:03:15;;;;;;;;;;;;;;;;;;5078888;28;19923;-64
2022/08/30 09:05:40;;;;;;;;;;;;;;;;;;5081927;28;19913;-65
2022/08/30 09:08:05;;;;;;;;;;;;;;;;;;5075378;28;19999;-65
2022/08/30 09:10:30;;;;;;;;;;;;;;;;;;5062368;28;19919;-64
2022/08/30 09:12:56;;;;;;;;;;;;;;;;;;5075197;28;19916;-65
2022/08/30 09:15:21;;;;;;;;;;;;;;;;;;5078924;28;20004;-65
2022/08/30 09:17:46;;;;;;;;;;;;;;;;;;5094713;28;19919;-65
2022/08/30 09:20:11;;;;;;;;;;;;;;;;;;5086363;28;19916;-65
2022/08/30 09:22:37;;;;;;;;;;;;;;;;;;5074814;28;19916;-65
2022/08/30 09:25:02;;;;;;;;;;;;;;;;;;5079637;28;20400;-64
2022/08/30 09:27:29;;;;;;;;;;;;;;;;;;5081314;28;20311;-65
2022/08/30 09:29:54;;;;;;;;;;;;;;;;;;5073876;28;19910;-64
2022/08/30 09:32:19;;;;;;;;;;;;;;;;;;5074588;28;19916;-65
2022/08/30 09:34:46;;;;;;;;;;;;;;;;;;5086350;28;19920;-64
2022/08/30 09:37:11;;;;;;;;;;;;;;;;;;5076480;28;19909;-65
2022/08/30 09:39:38;;;;;;;;;;;;;;;;;;5075988;28;19914;-65
2022/08/30 09:42:03;;;;;;;;;;;;;;;;;;5063386;28;20380;-64
2022/08/30 09:44:29;;;;;;;;;;;;;;;;;;5079675;28;20007;-64
2022/08/30 09:46:54;;;;;;;;;;;;;;;;;;5076317;28;19916;-64
2022/08/30 09:49:19;;;;;;;;;;;;;;;;;;5096845;28;19995;-64
2022/08/30 09:51:44;;;;;;;;;;;;;;;;;;5087535;28;19972;-64
2022/08/30 09:54:10;;;;;;;;;;;;;;;;;;5091246;28;19966;-65
2022/08/30 09:56:35;;;;;;;;;;;;;;;;;;5067693;28;19916;-63
2022/08/30 09:59:00;;;;;;;;;;;;;;;;;;5073354;28;20059;-64
2022/08/30 10:01:25;;;;;;;;;;;;;;;;;;5067663;28;19915;-63
2022/08/30 10:03:50;;;;;;;;;;;;;;;;;;5062786;28;19962;-64
2022/08/30 10:06:15;;;;;;;;;;;;;;;;;;5075225;28;19912;-63
2022/08/30 10:08:41;;;;;;;;;;;;;;;;;;5056257;28;19934;-64
2022/08/30 10:11:06;;;;;;;;;;;;;;;;;;5055009;28;19908;-58
2022/08/30 10:13:31;;;;;;;;;;;;;;;;;;5062848;28;20439;-59
2022/08/30 10:15:56;;;;;;;;;;;;;;;;;;5096387;28;19927;-59
2022/08/30 10:18:22;;;;;;;;;;;;;;;;;;5093392;28;19916;-58
2022/08/30 10:20:49;;;;;;;;;;;;;;;;;;5098328;28;19911;-59
2022/08/30 10:23:14;;;;;;;;;;;;;;;;;;5074851;28;19921;-59
2022/08/30 10:25:39;;;;;;;;;;;;;;;;;;5082693;28;19920;-59
2022/08/30 10:28:04;;;;;;;;;;;;;;;;;;5073399;28;19963;-58
2022/08/30 10:30:31;;;;;;;;;;;;;;;;;;5084841;28;19912;-60
2022/08/30 10:32:56;;;;;;;;;;;;;;;;;;5083598;28;20605;-64
2022/08/30 10:35:21;;;;;;;;;;;;;;;;;;5059608;28;19991;-65
2022/08/30 10:37:46;;;;;;;;;;;;;;;;;;5076472;28;20458;-63
2022/08/30 10:42:55;;;;;;;;;;;;;;;;;;5084835;28;20333;-65
2022/08/30 10:45:20;;;;;;;;;;;;;;;;;;5090013;28;19911;-66
2022/08/30 10:47:46;;;;;;;;;;;;;;;;;;5089549;28;20003;-65
2022/08/30 10:50:11;;;;;;;;;;;;;;;;;;5075422;28;20026;-66
2022/08/30 10:52:36;;;;;;;;;;;;;;;;;;5078389;28;19969;-63
2022/08/30 10:55:01;;;;;;;;;;;;;;;;;;5081679;28;19921;-63
2022/08/30 10:57:27;;;;;;;;;;;;;;;;;;5091950;28;19919;-63
2022/08/30 10:59:52;;;;;;;;;;;;;;;;;;5083808;28;19916;-62
2022/08/30 11:02:17;;;;;;;;;;;;;;;;;;5082553;28;20007;-63
2022/08/30 11:04:42;;;;;;;;;;;;;;;;;;5055383;28;20281;-63
2022/08/30 11:07:07;;;;;;;;;;;;;;;;;;5072540;28;19920;-63
2022/08/30 11:09:33;;;;;;;;;;;;;;;;;;5091846;28;19916;-63
2022/08/30 11:11:58;;;;;;;;;;;;;;;;;;5083788;28;19908;-63
2022/08/30 11:14:23;;;;;;;;;;;;;;;;;;5064813;28;20280;-63
2022/08/30 11:16:48;;;;;;;;;;;;;;;;;;5070783;28;19981;-63
2022/08/30 11:19:13;;;;;;;;;;;;;;;;;;5084260;28;19920;-62
2022/08/30 11:21:38;;;;;;;;;;;;;;;;;;5076994;28;19913;-62
2022/08/30 11:24:03;;;;;;;;;;;;;;;;;;5083864;28;19919;-63
2022/08/30 11:26:29;;;;;;;;;;;;;;;;;;5075279;28;20284;-63
2022/08/30 11:28:54;;;;;;;;;;;;;;;;;;5062034;28;19913;-63
2022/08/30 11:31:19;;;;;;;;;;;;;;;;;;5082775;28;19919;-63
2022/08/30 11:33:44;;;;;;;;;;;;;;;;;;5072215;28;20268;-62
2022/08/30 11:36:09;;;;;;;;;;;;;;;;;;5073158;28;19912;-62
2022/08/30 11:38:35;;;;;;;;;;;;;;;;;;5080286;28;19916;-63
2022/08/30 11:41:00;;;;;;;;;;;;;;;;;;5072569;28;19920;-63
2022/08/30 11:43:25;;;;;;;;;;;;;;;;;;5071980;28;19916;-63
2022/08/30 11:45:53;;;;;;;;;;;;;;;;;;5089599;28;19945;-63
2022/08/30 11:48:18;;;;;;;;;;;;;;;;;;5088761;28;19912;-63
2022/08/30 11:50:43;;;;;;;;;;;;;;;;;;5078142;28;20300;-63
2022/08/30 11:53:10;;;;;;;;;;;;;;;;;;5089936;28;20407;-63
2022/08/30 11:55:35;;;;;;;;;;;;;;;;;;5090676;28;19978;-63
2022/08/30 11:58:00;;;;;;;;;;;;;;;;;;5092536;28;20006;-63
2022/08/30 12:00:25;;;;;;;;;;;;;;;;;;5089212;28;19920;-63
2022/08/30 12:02:50;;;;;;;;;;;;;;;;;;5081498;28;19951;-62
2022/08/30 12:05:15;;;;;;;;;;;;;;;;;;5072801;28;19912;-63
2022/08/30 12:07:40;;;;;;;;;;;;;;;;;;5087038;28;19912;-62
2022/08/30 12:10:06;;;;;;;;;;;;;;;;;;5087326;28;19912;-63
2022/08/30 12:12:31;;;;;;;;;;;;;;;;;;5072241;28;19943;-63
2022/08/30 12:14:56;;;;;;;;;;;;;;;;;;5075641;28;20375;-62
2022/08/30 12:20:05;;;;;;;;;;;;;;;;;;5086187;28;19915;-61
2022/08/30 12:22:36;;;;;;;;;;;;;;;;;;5089334;28;19912;-63
2022/08/30 12:25:01;;;;;;;;;;;;;;;;;;5072040;28;19999;-63
2022/08/30 12:27:26;;;;;;;;;;;;;;;;;;5071494;28;19947;-63
2022/08/30 12:29:52;;;;;;;;;;;;;;;;;;5080182;28;19916;-63
2022/08/30 12:32:18;;;;;;;;;;;;;;;;;;5066055;28;20357;-63
2022/08/30 12:34:43;;;;;;;;;;;;;;;;;;5087289;28;19920;-63
2022/08/30 12:37:09;;;;;;;;;;;;;;;;;;5073957;28;19999;-63
2022/08/30 12:39:34;;;;;;;;;;;;;;;;;;5074693;28;19959;-63
2022/08/30 12:41:59;;;;;;;;;;;;;;;;;;5073567;28;19917;-63
2022/08/30 12:44:25;;;;;;;;;;;;;;;;;;5083368;28;19958;-61
2022/08/30 12:46:50;;;;;;;;;;;;;;;;;;5081767;28;19912;-62
2022/08/30 12:49:15;;;;;;;;;;;;;;;;;;5084313;28;19927;-63
2022/08/30 12:51:40;;;;;;;;;;;;;;;;;;5077321;28;19913;-63
2022/08/30 12:54:05;;;;;;;;;;;;;;;;;;5083624;28;19923;-62
2022/08/30 12:56:30;;;;;;;;;;;;;;;;;;5060835;28;19908;-63
2022/08/30 12:58:56;;;;;;;;;;;;;;;;;;5076426;28;19920;-63
2022/08/30 13:01:21;;;;;;;;;;;;;;;;;;5076393;28;19913;-63
2022/08/30 13:03:46;;;;;;;;;;;;;;;;;;5087133;28;19966;-63
2022/08/30 13:06:11;;;;;;;;;;;;;;;;;;5074091;28;19950;-63
2022/08/30 13:08:36;;;;;;;;;;;;;;;;;;5074973;28;19917;-63
2022/08/30 13:11:01;;;;;;;;;;;;;;;;;;5067655;28;19908;-63
2022/08/30 13:13:27;;;;;;;;;;;;;;;;;;5055772;28;19956;-63
2022/08/30 13:15:52;;;;;;;;;;;;;;;;;;5102950;28;19955;-63
2022/08/30 13:18:17;;;;;;;;;;;;;;;;;;5096917;28;19923;-64
2022/08/30 13:20:42;;;;;;;;;;;;;;;;;;5056499;28;20368;-62
2022/08/30 13:23:08;;;;;;;;;;;;;;;;;;5075039;28;19943;-63
2022/08/30 13:25:33;;;;;;;;;;;;;;;;;;5091289;28;19916;-62
2022/08/30 13:27:58;;;;;;;;;;;;;;;;;;5078577;28;19935;-63
2022/08/30 13:30:23;;;;;;;;;;;;;;;;;;5082767;28;20289;-62
2022/08/30 13:32:48;;;;;;;;;;;;;;;;;;5093696;28;20054;-63
2022/08/30 13:35:14;;;;;;;;;;;;;;;;;;5084459;28;19919;-63
2022/08/30 13:37:40;;;;;;;;;;;;;;;;;;5074349;28;19923;-61
2022/08/30 13:40:06;;;;;;;;;;;;;;;;;;5068091;28;20017;-62
2022/08/30 13:42:31;;;;;;;;;;;;;;;;;;5085246;28;20383;-61
2022/08/30 13:44:56;;;;;;;;;;;;;;;;;;5080042;28;19919;-63
2022/08/30 13:47:21;;;;;;;;;;;;;;;;;;5075167;28;19912;-62
2022/08/30 13:49:46;;;;;;;;;;;;;;;;;;5075925;28;19951;-61
2022/08/30 13:52:11;;;;;;;;;;;;;;;;;;5077598;28;19939;-62
2022/08/30 13:54:37;;;;;;;;;;;;;;;;;;5078409;28;20276;-59
2022/08/30 13:57:02;;;;;;;;;;;;;;;;;;5088622;28;19912;-60
2022/08/30 13:59:28;;;;;;;;;;;;;;;;;;5076683;28;19912;-67
2022/08/30 14:01:53;;;;;;;;;;;;;;;;;;5082800;28;19941;-60
2022/08/30 14:04:18;;;;;;;;;;;;;;;;;;5078696;28;20372;-61
2022/08/30 14:06:43;;;;;;;;;;;;;;;;;;5075572;28;19916;-61
2022/08/30 14:09:09;;;;;;;;;;;;;;;;;;5070632;28;20279;-61
2022/08/30 14:11:34;;;;;;;;;;;;;;;;;;5079692;28;19973;-61
2022/08/30 14:13:59;;;;;;;;;;;;;;;;;;5087840;28;20050;-59
2022/08/30 14:16:24;;;;;;;;;;;;;;;;;;5084507;28;19925;-59
2022/08/30 14:18:50;;;;;;;;;;;;;;;;;;5090548;28;19966;-61
2022/08/30 14:21:15;;;;;;;;;;;;;;;;;;5087222;28;20336;-61
2022/08/30 14:23:40;;;;;;;;;;;;;;;;;;5078014;28;19912;-62
2022/08/30 14:26:06;;;;;;;;;;;;;;;;;;5055246;28;20256;-61
2022/08/30 14:28:31;;;;;;;;;;;;;;;;;;5083130;28;19918;-63
2022/08/30 14:30:56;;;;;;;;;;;;;;;;;;5063775;28;19995;-62
2022/08/30 14:33:22;;;;;;;;;;;;;;;;;;5064045;28;20364;-62
2022/08/30 14:35:47;;;;;;;;;;;;;;;;;;5054435;28;20447;-58
2022/08/30 14:38:12;;;;;;;;;;;;;;;;;;5078116;28;19966;-59
2022/08/30 14:40:39;;;;;;;;;;;;;;;;;;5080011;28;19919;-59
2022/08/30 14:43:04;;;;;;;;;;;;;;;;;;5079367;28;20007;-59
2022/08/30 14:45:29;;;;;;;;;;;;;;;;;;5062158;28;20478;-60
2022/08/30 14:47:54;;;;;;;;;;;;;;;;;;5078166;28;19951;-59
2022/08/30 14:50:19;;;;;;;;;;;;;;;;;;5085328;28;19912;-59
2022/08/30 14:52:44;;;;;;;;;;;;;;;;;;5087070;28;19954;-59
2022/08/30 14:55:09;;;;;;;;;;;;;;;;;;5100311;28;20291;-59
2022/08/30 14:57:35;;;;;;;;;;;;;;;;;;5076142;28;19946;-59
2022/08/30 15:00:00;;;;;;;;;;;;;;;;;;5074060;28;19919;-59
2022/08/30 15:02:25;;;;;;;;;;;;;;;;;;5086271;28;19916;-60
2022/08/30 15:04:50;;;;;;;;;;;;;;;;;;5080911;28;20003;-59
2022/08/30 15:07:15;;;;;;;;;;;;;;;;;;5077540;28;19917;-59
2022/08/30 15:09:40;;;;;;;;;;;;;;;;;;5087258;28;19995;-60
2022/08/30 15:12:05;;;;;;;;;;;;;;;;;;5079999;28;19916;-59
2022/08/30 15:14:31;;;;;;;;;;;;;;;;;;5057298;28;19924;-60
2022/08/30 15:16:57;;;;;;;;;;;;;;;;;;5054044;28;20011;-60
2022/08/30 15:19:22;;;;;;;;;;;;;;;;;;5059935;28;19966;-60
2022/08/30 15:21:47;;;;;;;;;;;;;;;;;;5055240;28;19913;-60
2022/08/30 15:24:12;;;;;;;;;;;;;;;;;;5054625;28;19948;-60
2022/08/30 15:26:40;;;;;;;;;;;;;;;;;;5066524;28;19921;-60
2022/08/30 15:29:05;;;;;;;;;;;;;;;;;;5052628;28;20320;-60
2022/08/30 15:31:30;;;;;;;;;;;;;;;;;;5056292;28;19921;-60
2022/08/30 15:33:56;;;;;;;;;;;;;;;;;;5066382;28;19913;-60
2022/08/30 15:36:21;;;;;;;;;;;;;;;;;;5057697;28;19955;-60
2022/08/30 15:38:47;;;;;;;;;;;;;;;;;;5066151;28;20356;-59
2022/08/30 15:41:12;;;;;;;;;;;;;;;;;;5066246;28;20392;-59
2022/08/30 15:43:37;;;;;;;;;;;;;;;;;;5067464;28;19913;-58
2022/08/30 15:46:02;;;;;;;;;;;;;;;;;;5053023;28;19935;-58
2022/08/30 15:48:27;;;;;;;;;;;;;;;;;;5053439;28;19913;-58
2022/08/30 15:50:52;;;;;;;;;;;;;;;;;;5054186;28;19913;-58
2022/08/30 15:53:17;;;;;;;;;;;;;;;;;;5056636;28;19912;-59
2022/08/30 15:55:43;;;;;;;;;;;;;;;;;;5061709;28;19967;-59
2022/08/30 15:58:08;;;;;;;;;;;;;;;;;;5052603;28;19925;-59
2022/08/30 16:00:33;;;;;;;;;;;;;;;;;;5050860;28;20273;-59
2022/08/30 16:02:58;;;;;;;;;;;;;;;;;;5036965;28;19913;-58
2022/08/30 16:05:23;;;;;;;;;;;;;;;;;;5050813;28;19920;-59
2022/08/30 16:07:48;;;;;;;;;;;;;;;;;;5053104;28;20316;-60
2022/08/30 16:10:13;;;;;;;;;;;;;;;;;;5044785;28;19920;-60
2022/08/30 16:12:38;;;;;;;;;;;;;;;;;;5060109;28;19908;-60
2022/08/30 16:15:04;;;;;;;;;;;;;;;;;;5044670;28;19932;-59
2022/08/30 16:17:29;;;;;;;;;;;;;;;;;;5068138;28;19921;-58
2022/08/30 16:19:54;;;;;;;;;;;;;;;;;;5062110;28;19913;-59
2022/08/30 16:22:19;;;;;;;;;;;;;;;;;;5064524;28;20213;-59
2022/08/30 16:24:44;;;;;;;;;;;;;;;;;;5059848;28;19916;-59
2022/08/30 16:27:09;;;;;;;;;;;;;;;;;;5059875;28;19956;-59
2022/08/30 16:29:34;;;;;;;;;;;;;;;;;;5054981;28;19920;-59
2022/08/30 16:32:00;;;;;;;;;;;;;;;;;;5061298;28;19908;-59
2022/08/30 16:34:25;;;;;;;;;;;;;;;;;;5060917;28;19938;-59
2022/08/30 16:36:50;;;;;;;;;;;;;;;;;;5063536;28;19912;-59
2022/08/30 16:39:15;;;;;;;;;;;;;;;;;;5068182;28;20019;-59
2022/08/30 16:41:40;;;;;;;;;;;;;;;;;;5055330;28;19913;-59
2022/08/30 16:44:06;;;;;;;;;;;;;;;;;;5057436;28;19975;-58